Time;durP1;ratioP1;P1;durP2;ratioP2;P2;SDS_P1;SDS_P2;PMS_P1;PMS_P2;Temp;Humidity;BMP_temperature;BMP_pressure;BME280_temperature;BME280_humidity;BME280_pressure;Samples;Min_cycle;Max_cycle;Signal;HPM_P1;HPM_P2
2022/04/05 00:01:29;;;;;;;1.90;0.80;;;;;;;;;;5103242;27;20809;-75
2022/04/05 00:03:55;;;;;;;2.22;1.00;;;;;;;;;;5104962;27;20031;-75
2022/04/05 00:06:21;;;;;;;4.15;1.15;;;;;;;;;;5087833;27;20126;-74
2022/04/05 00:08:47;;;;;;;8.95;1.50;;;;;;;;;;5103264;27;20499;-74
2022/04/05 00:11:12;;;;;;;3.85;1.05;;;;;;;;;;5105173;27;20047;-76
2022/04/05 00:13:38;;;;;;;4.63;1.30;;;;;;;;;;5104307;27;20482;-76
2022/04/05 00:16:05;;;;;;;2.83;0.85;;;;;;;;;;5103069;27;20050;-76
2022/04/05 00:18:31;;;;;;;4.03;1.10;;;;;;;;;;5083706;27;20047;-74
2022/04/05 00:20:57;;;;;;;1.90;0.90;;;;;;;;;;5104141;27;20035;-75
2022/04/05 00:23:23;;;;;;;5.82;1.20;;;;;;;;;;5102145;27;20379;-76
2022/04/05 00:25:49;;;;;;;2.88;1.20;;;;;;;;;;5088454;27;20034;-76
2022/04/05 00:28:15;;;;;;;5.07;1.60;;;;;;;;;;5103950;27;20046;-74
2022/04/05 00:30:41;;;;;;;6.40;1.48;;;;;;;;;;5103195;27;20043;-75
2022/04/05 00:33:07;;;;;;;3.33;1.10;;;;;;;;;;5087852;27;20047;-75
2022/04/05 00:35:33;;;;;;;2.55;0.80;;;;;;;;;;5101327;27;20053;-74
2022/04/05 00:37:59;;;;;;;4.47;1.48;;;;;;;;;;5087033;27;20043;-74
2022/04/05 00:40:25;;;;;;;2.60;1.00;;;;;;;;;;5102381;28;20044;-75
2022/04/05 00:42:51;;;;;;;2.90;0.88;;;;;;;;;;5104160;27;20384;-75
2022/04/05 00:45:20;;;;;;;3.75;0.82;;;;;;;;;;5104630;27;20122;-74
2022/04/05 00:47:51;;;;;;;9.60;1.98;;;;;;;;;;5087636;27;20391;-75
2022/04/05 00:50:21;;;;;;;4.18;1.35;;;;;;;;;;5103310;27;20077;-74
2022/04/05 00:52:48;;;;;;;3.92;0.98;;;;;;;;;;5102302;27;20453;-75
2022/04/05 00:55:15;;;;;;;5.32;0.90;;;;;;;;;;5102375;27;20043;-74
2022/04/05 00:57:42;;;;;;;2.70;0.90;;;;;;;;;;5102964;27;20035;-75
2022/04/05 01:00:09;;;;;;;8.93;1.27;;;;;;;;;;5104716;27;20407;-74
2022/04/05 01:02:39;;;;;;;2.70;1.10;;;;;;;;;;5103771;27;20420;-74
2022/04/05 01:05:06;;;;;;;4.50;1.20;;;;;;;;;;5104155;27;20035;-75
2022/04/05 01:07:33;;;;;;;4.53;0.90;;;;;;;;;;5082965;27;20039;-75
2022/04/05 01:09:59;;;;;;;6.30;1.05;;;;;;;;;;5103115;27;20065;-74
2022/04/05 01:12:26;;;;;;;4.55;0.80;;;;;;;;;;5087093;27;20100;-74
2022/04/05 01:14:52;;;;;;;1.00;0.75;;;;;;;;;;5085542;28;20475;-76
2022/04/05 01:17:18;;;;;;;2.40;0.90;;;;;;;;;;5104731;27;20057;-74
2022/04/05 01:19:46;;;;;;;2.80;0.80;;;;;;;;;;5102019;28;20031;-72
2022/04/05 01:22:13;;;;;;;4.68;1.17;;;;;;;;;;5099803;27;20048;-75
2022/04/05 01:24:39;;;;;;;5.10;0.90;;;;;;;;;;5102320;27;20118;-74
2022/04/05 01:27:12;;;;;;;3.10;0.90;;;;;;;;;;5101856;28;20084;-74
2022/04/05 01:29:38;;;;;;;4.55;1.15;;;;;;;;;;5085406;27;20027;-77
2022/04/05 01:32:06;;;;;;;2.30;0.70;;;;;;;;;;5087139;27;20483;-75
2022/04/05 01:34:34;;;;;;;3.95;0.60;;;;;;;;;;5082742;28;20039;-75
2022/04/05 01:37:01;;;;;;;4.25;0.85;;;;;;;;;;5111060;27;20039;-75
2022/04/05 01:39:28;;;;;;;3.17;0.75;;;;;;;;;;5114143;27;20096;-75
2022/04/05 01:41:55;;;;;;;3.45;0.93;;;;;;;;;;5113740;27;20093;-77
2022/04/05 01:44:21;;;;;;;7.45;1.25;;;;;;;;;;5113851;28;20397;-77
2022/04/05 01:46:47;;;;;;;3.17;0.85;;;;;;;;;;5114087;28;20108;-75
2022/04/05 01:49:14;;;;;;;5.50;1.08;;;;;;;;;;5114243;28;20444;-75
2022/04/05 01:51:40;;;;;;;5.50;0.82;;;;;;;;;;5114114;28;20059;-77
2022/04/05 01:54:08;;;;;;;3.30;1.23;;;;;;;;;;5114032;28;20043;-77
2022/04/05 01:56:41;;;;;;;9.45;1.38;;;;;;;;;;5114274;28;20126;-76
2022/04/05 01:59:07;;;;;;;7.78;1.55;;;;;;;;;;5114320;28;20050;-75
2022/04/05 02:01:33;;;;;;;7.82;1.23;;;;;;;;;;5113951;28;20043;-76
2022/04/05 02:03:59;;;;;;;3.42;0.93;;;;;;;;;;5113979;28;20487;-75
2022/04/05 02:06:26;;;;;;;4.43;0.80;;;;;;;;;;5113929;28;20038;-76
2022/04/05 02:08:52;;;;;;;6.70;1.15;;;;;;;;;;5114100;28;20559;-75
2022/04/05 02:11:18;;;;;;;5.20;1.27;;;;;;;;;;5114123;28;20116;-75
2022/04/05 02:13:44;;;;;;;2.42;0.80;;;;;;;;;;5113899;28;20096;-76
2022/04/05 02:16:10;;;;;;;1.90;0.90;;;;;;;;;;5113978;28;20050;-75
2022/04/05 02:18:37;;;;;;;5.45;1.00;;;;;;;;;;5113762;28;20043;-75
2022/04/05 02:21:03;;;;;;;4.20;0.88;;;;;;;;;;5113847;28;20126;-76
2022/04/05 02:23:31;;;;;;;4.10;1.02;;;;;;;;;;5114193;28;20043;-74
2022/04/05 02:25:57;;;;;;;4.20;1.55;;;;;;;;;;5114125;28;20066;-75
2022/04/05 02:28:23;;;;;;;13.80;1.27;;;;;;;;;;5113987;28;20470;-75
2022/04/05 02:30:49;;;;;;;4.32;0.75;;;;;;;;;;5114102;28;20043;-76
2022/04/05 02:33:15;;;;;;;2.97;1.10;;;;;;;;;;5113652;28;20035;-74
2022/04/05 02:35:43;;;;;;;3.60;0.80;;;;;;;;;;5113743;28;20133;-76
2022/04/05 02:38:09;;;;;;;4.47;0.93;;;;;;;;;;5113580;28;20043;-75
2022/04/05 02:40:34;;;;;;;4.90;0.93;;;;;;;;;;5113432;28;20043;-76
2022/04/05 02:43:01;;;;;;;5.47;1.08;;;;;;;;;;5113295;28;20055;-77
2022/04/05 02:45:27;;;;;;;5.57;0.82;;;;;;;;;;5113645;28;20167;-77
2022/04/05 02:47:52;;;;;;;3.10;0.90;;;;;;;;;;5113600;28;20126;-77
2022/04/05 02:50:18;;;;;;;7.90;1.20;;;;;;;;;;5113459;28;20482;-76
2022/04/05 02:52:45;;;;;;;5.85;1.55;;;;;;;;;;5113492;28;20047;-76
2022/04/05 02:55:11;;;;;;;1.85;0.75;;;;;;;;;;5113505;28;20047;-76
2022/04/05 02:57:38;;;;;;;5.78;1.10;;;;;;;;;;5113531;27;20061;-76
2022/04/05 03:00:07;;;;;;;6.55;0.90;;;;;;;;;;5116856;27;20039;-75
2022/04/05 03:02:34;;;;;;;3.55;1.00;;;;;;;;;;5117028;27;20172;-77
2022/04/05 03:05:01;;;;;;;2.95;0.95;;;;;;;;;;5117389;27;20043;-76
2022/04/05 03:07:27;;;;;;;3.47;0.98;;;;;;;;;;5116990;27;20043;-76
2022/04/05 03:09:53;;;;;;;5.80;0.88;;;;;;;;;;5116906;27;20039;-76
2022/04/05 03:12:19;;;;;;;8.73;1.50;;;;;;;;;;5116842;27;20039;-76
2022/04/05 03:14:45;;;;;;;1.08;0.88;;;;;;;;;;5117196;27;20050;-76
2022/04/05 03:17:11;;;;;;;6.68;1.15;;;;;;;;;;5116876;27;20035;-77
2022/04/05 03:19:37;;;;;;;3.80;1.00;;;;;;;;;;5116709;27;20039;-76
2022/04/05 03:22:05;;;;;;;1.20;0.82;;;;;;;;;;5116755;27;20085;-76
2022/04/05 03:24:31;;;;;;;8.23;1.48;;;;;;;;;;5116997;27;20055;-76
2022/04/05 03:26:58;;;;;;;1.10;0.82;;;;;;;;;;5116594;27;20078;-77
2022/04/05 03:29:24;;;;;;;4.90;1.20;;;;;;;;;;5116541;27;20035;-75
2022/04/05 03:31:50;;;;;;;6.57;1.20;;;;;;;;;;5116787;27;20129;-75
2022/04/05 03:34:16;;;;;;;8.02;1.75;;;;;;;;;;5116473;27;20038;-76
2022/04/05 03:36:43;;;;;;;6.72;1.15;;;;;;;;;;5116592;27;20501;-77
2022/04/05 03:39:10;;;;;;;5.90;1.38;;;;;;;;;;5116472;27;20046;-74
2022/04/05 03:41:36;;;;;;;7.38;1.95;;;;;;;;;;5105850;28;20047;-76
2022/04/05 03:44:02;;;;;;;4.85;1.08;;;;;;;;;;5092520;28;20040;-76
2022/04/05 03:46:28;;;;;;;7.47;1.10;;;;;;;;;;5075529;28;20044;-76
2022/04/05 03:48:54;;;;;;;8.35;1.25;;;;;;;;;;5075874;28;20117;-75
2022/04/05 03:51:20;;;;;;;6.63;1.27;;;;;;;;;;5075478;28;20126;-76
2022/04/05 03:53:46;;;;;;;6.95;1.13;;;;;;;;;;5075763;28;20089;-75
2022/04/05 03:56:13;;;;;;;7.00;1.38;;;;;;;;;;5092572;28;20052;-76
2022/04/05 03:58:39;;;;;;;9.05;2.22;;;;;;;;;;5092456;28;20044;-75
2022/04/05 04:01:04;;;;;;;6.72;0.75;;;;;;;;;;5075302;28;20040;-75
2022/04/05 04:03:30;;;;;;;12.63;1.65;;;;;;;;;;5092284;28;20040;-75
2022/04/05 04:05:56;;;;;;;7.88;1.20;;;;;;;;;;5075116;28;20028;-77
2022/04/05 04:08:22;;;;;;;7.03;1.55;;;;;;;;;;5092148;28;20072;-77
2022/04/05 04:10:48;;;;;;;7.43;1.42;;;;;;;;;;5074317;28;20039;-76
2022/04/05 04:13:15;;;;;;;9.90;1.30;;;;;;;;;;5074965;28;20048;-76
2022/04/05 04:15:41;;;;;;;10.02;1.40;;;;;;;;;;5092004;28;20040;-76
2022/04/05 04:18:07;;;;;;;7.18;1.15;;;;;;;;;;5075071;28;20055;-76
2022/04/05 04:20:33;;;;;;;9.25;1.35;;;;;;;;;;5091717;28;20040;-76
2022/04/05 04:22:59;;;;;;;5.07;1.35;;;;;;;;;;5074861;28;20480;-76
2022/04/05 04:25:25;;;;;;;12.00;2.08;;;;;;;;;;5075047;28;20050;-77
2022/04/05 04:27:51;;;;;;;4.40;2.20;;;;;;;;;;5074725;28;20127;-76
2022/04/05 04:30:17;;;;;;;4.18;1.30;;;;;;;;;;5074991;28;20253;-75
2022/04/05 04:32:43;;;;;;;8.00;1.65;;;;;;;;;;5091561;28;20032;-76
2022/04/05 04:35:09;;;;;;;7.30;1.58;;;;;;;;;;5091751;28;20036;-75
2022/04/05 04:37:35;;;;;;;6.90;1.63;;;;;;;;;;5074425;28;20083;-75
2022/04/05 04:40:02;;;;;;;3.42;1.08;;;;;;;;;;5074576;28;20039;-76
2022/04/05 04:42:28;;;;;;;3.22;0.90;;;;;;;;;;5091185;28;20056;-76
2022/04/05 04:44:53;;;;;;;6.38;1.42;;;;;;;;;;5074472;28;20404;-77
2022/04/05 04:47:19;;;;;;;7.68;1.55;;;;;;;;;;5074392;28;20411;-76
2022/04/05 04:49:45;;;;;;;6.15;1.90;;;;;;;;;;5074558;28;20040;-77
2022/04/05 04:52:11;;;;;;;1.63;0.80;;;;;;;;;;5091498;28;20093;-77
2022/04/05 04:54:37;;;;;;;3.67;0.93;;;;;;;;;;5074234;28;20039;-76
2022/04/05 04:57:03;;;;;;;5.97;1.17;;;;;;;;;;5091017;28;20047;-77
2022/04/05 04:59:29;;;;;;;6.65;1.20;;;;;;;;;;5091285;28;20044;-77
2022/04/05 05:01:55;;;;;;;4.85;1.25;;;;;;;;;;5074008;28;20059;-77
2022/04/05 05:04:21;;;;;;;6.90;1.10;;;;;;;;;;5074382;28;20075;-77
2022/04/05 05:06:47;;;;;;;7.63;1.20;;;;;;;;;;5091071;28;20044;-77
2022/04/05 05:09:13;;;;;;;6.90;1.00;;;;;;;;;;5074277;28;20036;-76
2022/04/05 05:11:39;;;;;;;5.20;1.30;;;;;;;;;;5090821;28;20040;-76
2022/04/05 05:14:05;;;;;;;5.85;1.65;;;;;;;;;;5073917;28;20042;-77
2022/04/05 05:16:33;;;;;;;10.45;1.92;;;;;;;;;;5073884;28;20462;-77
2022/04/05 05:18:59;;;;;;;10.95;2.13;;;;;;;;;;5074097;28;20044;-77
2022/04/05 05:21:25;;;;;;;4.68;1.02;;;;;;;;;;5073490;28;20051;-77
2022/04/05 05:23:51;;;;;;;5.30;1.48;;;;;;;;;;5090725;28;20399;-76
2022/04/05 05:26:17;;;;;;;6.72;0.95;;;;;;;;;;5090799;28;20040;-76
2022/04/05 05:28:43;;;;;;;7.85;1.35;;;;;;;;;;5090598;28;20039;-77
2022/04/05 05:31:09;;;;;;;7.35;1.10;;;;;;;;;;5073963;28;20088;-76
2022/04/05 05:33:35;;;;;;;8.85;1.27;;;;;;;;;;5073755;28;20162;-76
2022/04/05 05:36:01;;;;;;;7.35;1.92;;;;;;;;;;5073627;28;20181;-76
2022/04/05 05:38:27;;;;;;;4.82;1.27;;;;;;;;;;5073586;28;20040;-77
2022/04/05 05:40:53;;;;;;;6.05;1.40;;;;;;;;;;5091831;28;20113;-77
2022/04/05 05:43:23;;;;;;;9.60;1.38;;;;;;;;;;5116204;27;20051;-76
2022/04/05 05:45:49;;;;;;;7.80;1.52;;;;;;;;;;5115180;27;20078;-76
2022/04/05 05:48:15;;;;;;;5.10;1.17;;;;;;;;;;5115091;28;20035;-77
2022/04/05 05:50:41;;;;;;;7.63;2.28;;;;;;;;;;5115188;27;20039;-77
2022/04/05 05:53:07;;;;;;;9.90;1.73;;;;;;;;;;5113965;28;20043;-77
2022/04/05 05:55:35;;;;;;;6.35;1.70;;;;;;;;;;5114253;28;20039;-77
2022/04/05 05:58:02;;;;;;;7.53;1.60;;;;;;;;;;5114333;28;20139;-77
2022/04/05 06:00:28;;;;;;;11.18;1.30;;;;;;;;;;5114199;28;20035;-77
2022/04/05 06:02:56;;;;;;;11.25;1.60;;;;;;;;;;5113891;28;20043;-77
2022/04/05 06:05:23;;;;;;;9.40;2.08;;;;;;;;;;5113925;28;20035;-77
2022/04/05 06:07:49;;;;;;;4.88;1.40;;;;;;;;;;5113953;28;20035;-76
2022/04/05 06:10:15;;;;;;;5.40;1.50;;;;;;;;;;5114234;28;20050;-77
2022/04/05 06:12:43;;;;;;;6.05;2.08;;;;;;;;;;5113964;28;20031;-77
2022/04/05 06:15:09;;;;;;;6.00;2.25;;;;;;;;;;5113798;28;20470;-77
2022/04/05 06:17:43;;;;;;;7.32;1.42;;;;;;;;;;5113851;28;20443;-76
2022/04/05 06:20:09;;;;;;;4.57;1.95;;;;;;;;;;5101086;28;20040;-76
2022/04/05 06:22:42;;;;;;;4.75;2.10;;;;;;;;;;5067386;28;20031;-77
2022/04/05 06:25:09;;;;;;;4.70;1.15;;;;;;;;;;5067284;28;20544;-77
2022/04/05 06:27:36;;;;;;;8.32;2.17;;;;;;;;;;5082360;28;20032;-76
2022/04/05 06:30:02;;;;;;;3.75;1.88;;;;;;;;;;5082901;28;20531;-76
2022/04/05 06:32:28;;;;;;;8.88;1.60;;;;;;;;;;5066848;28;20040;-76
2022/04/05 06:34:53;;;;;;;7.95;1.63;;;;;;;;;;5085464;28;20042;-77
2022/04/05 06:37:20;;;;;;;6.00;1.48;;;;;;;;;;5070339;28;20046;-76
2022/04/05 06:39:46;;;;;;;5.40;2.00;;;;;;;;;;5087536;28;20483;-77
2022/04/05 06:42:12;;;;;;;5.57;1.58;;;;;;;;;;5068041;28;20051;-77
2022/04/05 06:44:38;;;;;;;5.50;2.45;;;;;;;;;;5069722;28;20071;-77
2022/04/05 06:47:06;;;;;;;5.80;1.73;;;;;;;;;;5070133;28;20094;-77
2022/04/05 06:49:32;;;;;;;10.07;2.15;;;;;;;;;;5068445;28;20036;-77
2022/04/05 06:51:58;;;;;;;4.75;2.30;;;;;;;;;;5086624;28;20088;-77
2022/04/05 06:54:24;;;;;;;4.47;1.90;;;;;;;;;;5086756;28;20032;-77
2022/04/05 06:56:50;;;;;;;7.32;1.45;;;;;;;;;;5085139;28;20509;-77
2022/04/05 06:59:16;;;;;;;3.53;1.77;;;;;;;;;;5087107;28;20502;-75
2022/04/05 07:01:42;;;;;;;6.50;1.30;;;;;;;;;;5086269;28;20119;-77
2022/04/05 07:04:08;;;;;;;3.75;1.30;;;;;;;;;;5084883;28;20055;-76
2022/04/05 07:06:35;;;;;;;5.30;1.25;;;;;;;;;;5085488;28;20035;-77
2022/04/05 07:09:01;;;;;;;4.03;1.55;;;;;;;;;;5085871;28;20039;-76
2022/04/05 07:11:27;;;;;;;8.55;1.25;;;;;;;;;;5070338;28;20449;-76
2022/04/05 07:13:53;;;;;;;5.70;1.23;;;;;;;;;;5066484;28;20032;-77
2022/04/05 07:16:19;;;;;;;5.75;1.40;;;;;;;;;;5086558;28;20036;-77
2022/04/05 07:18:45;;;;;;;4.53;1.42;;;;;;;;;;5086177;28;20043;-77
2022/04/05 07:21:11;;;;;;;5.50;1.38;;;;;;;;;;5084507;28;20492;-77
2022/04/05 07:23:37;;;;;;;4.45;1.42;;;;;;;;;;5070030;28;20032;-77
2022/04/05 07:26:04;;;;;;;7.93;2.00;;;;;;;;;;5085837;28;20086;-77
2022/04/05 07:28:30;;;;;;;5.03;1.65;;;;;;;;;;5084386;28;20119;-77
2022/04/05 07:30:56;;;;;;;4.80;1.75;;;;;;;;;;5086753;28;20115;-77
2022/04/05 07:33:22;;;;;;;5.70;2.05;;;;;;;;;;5068955;28;20043;-77
2022/04/05 07:35:48;;;;;;;5.38;1.88;;;;;;;;;;5067966;28;20031;-77
2022/04/05 07:38:14;;;;;;;3.85;1.85;;;;;;;;;;5069531;28;20032;-77
2022/04/05 07:40:49;;;;;;;5.32;1.88;;;;;;;;;;5068159;28;20472;-77
2022/04/05 07:43:19;;;;;;;5.47;1.80;;;;;;;;;;5067576;28;20385;-77
2022/04/05 07:45:48;;;;;;;3.80;1.27;;;;;;;;;;5059993;28;20050;-76
2022/04/05 07:48:15;;;;;;;7.53;1.40;;;;;;;;;;5093523;27;20110;-76
2022/04/05 07:50:41;;;;;;;3.65;1.10;;;;;;;;;;5088498;27;20442;-74
2022/04/05 07:53:07;;;;;;;5.57;1.63;;;;;;;;;;5102553;27;20054;-77
2022/04/05 07:55:33;;;;;;;4.90;0.90;;;;;;;;;;5106224;27;20043;-76
2022/04/05 07:57:59;;;;;;;3.25;1.20;;;;;;;;;;5095117;28;20143;-77
2022/04/05 08:00:26;;;;;;;6.60;1.23;;;;;;;;;;5075109;28;20046;-76
2022/04/05 08:02:52;;;;;;;5.03;1.48;;;;;;;;;;5095018;27;20679;-75
2022/04/05 08:05:19;;;;;;;5.70;1.48;;;;;;;;;;5098604;28;20039;-75
2022/04/05 08:07:46;;;;;;;4.43;1.52;;;;;;;;;;5093219;28;20047;-75
2022/04/05 08:10:13;;;;;;;5.00;1.33;;;;;;;;;;5075894;28;20491;-76
2022/04/05 08:12:43;;;;;;;4.20;1.30;;;;;;;;;;5074624;28;20490;-77
2022/04/05 08:15:10;;;;;;;4.82;1.52;;;;;;;;;;5075113;28;20047;-77
2022/04/05 08:17:36;;;;;;;3.10;1.13;;;;;;;;;;5091835;28;20336;-77
2022/04/05 08:20:02;;;;;;;7.13;1.70;;;;;;;;;;5074726;28;20082;-77
2022/04/05 08:22:28;;;;;;;3.22;1.42;;;;;;;;;;5074145;28;20127;-76
2022/04/05 08:24:54;;;;;;;2.65;1.40;;;;;;;;;;5091754;28;20138;-76
2022/04/05 08:27:20;;;;;;;6.72;2.63;;;;;;;;;;5091381;28;20091;-77
2022/04/05 08:29:46;;;;;;;3.80;1.75;;;;;;;;;;5091612;28;20047;-77
2022/04/05 08:32:12;;;;;;;5.43;2.10;;;;;;;;;;5091556;28;20054;-76
2022/04/05 08:34:41;;;;;;;2.65;1.50;;;;;;;;;;5091224;28;20040;-78
2022/04/05 08:37:08;;;;;;;3.85;1.55;;;;;;;;;;5074985;28;20063;-76
2022/04/05 08:39:34;;;;;;;6.50;1.75;;;;;;;;;;5074295;28;20050;-76
2022/04/05 08:42:00;;;;;;;7.35;1.88;;;;;;;;;;5073847;28;20176;-76
2022/04/05 08:44:26;;;;;;;4.72;2.08;;;;;;;;;;5075532;28;20118;-77
2022/04/05 08:46:52;;;;;;;2.75;1.40;;;;;;;;;;5077548;28;20046;-75
2022/04/05 08:49:19;;;;;;;4.57;1.67;;;;;;;;;;5077503;28;20112;-77
2022/04/05 08:51:45;;;;;;;6.97;1.98;;;;;;;;;;5077555;28;20036;-77
2022/04/05 08:54:11;;;;;;;3.15;1.30;;;;;;;;;;5094732;28;20044;-77
2022/04/05 08:56:37;;;;;;;2.80;1.35;;;;;;;;;;5093960;28;20040;-78
2022/04/05 08:59:03;;;;;;;6.00;1.60;;;;;;;;;;5077641;28;20490;-77
2022/04/05 09:01:29;;;;;;;4.47;1.50;;;;;;;;;;5094160;28;20126;-77
2022/04/05 09:03:58;;;;;;;3.45;1.40;;;;;;;;;;5077579;28;20044;-76
2022/04/05 09:06:29;;;;;;;2.92;1.33;;;;;;;;;;5077626;28;20059;-77
2022/04/05 09:08:57;;;;;;;4.93;2.13;;;;;;;;;;5077551;28;20039;-77
2022/04/05 09:11:27;;;;;;;6.15;1.45;;;;;;;;;;5077320;28;20426;-77
2022/04/05 09:14:01;;;;;;;4.10;1.83;;;;;;;;;;5077910;28;20039;-77
2022/04/05 09:16:31;;;;;;;3.30;1.67;;;;;;;;;;5094235;28;20303;-78
2022/04/05 09:18:58;;;;;;;2.92;1.73;;;;;;;;;;5094315;28;20517;-77
2022/04/05 09:21:24;;;;;;;2.63;1.30;;;;;;;;;;5093922;28;20075;-77
2022/04/05 09:23:53;;;;;;;2.42;1.30;;;;;;;;;;5077391;28;20496;-75
2022/04/05 09:26:19;;;;;;;3.20;1.27;;;;;;;;;;5090750;28;20039;-77
2022/04/05 09:28:47;;;;;;;2.15;1.05;;;;;;;;;;5073935;28;20039;-76
2022/04/05 09:31:14;;;;;;;4.30;1.15;;;;;;;;;;5073537;28;20559;-77
2022/04/05 09:33:41;;;;;;;4.57;1.25;;;;;;;;;;5090319;28;20039;-77
2022/04/05 09:36:07;;;;;;;1.17;1.08;;;;;;;;;;5090218;28;20106;-77
2022/04/05 09:38:34;;;;;;;3.92;1.08;;;;;;;;;;5090662;28;20493;-78
2022/04/05 09:41:09;;;;;;;2.58;1.02;;;;;;;;;;5089719;28;20044;-77
2022/04/05 09:43:35;;;;;;;1.00;0.90;;;;;;;;;;5073144;28;20039;-78
2022/04/05 09:46:02;;;;;;;2.42;0.80;;;;;;;;;;5073867;28;20043;-78
2022/04/05 09:48:32;;;;;;;3.03;0.90;;;;;;;;;;5073823;28;20050;-77
2022/04/05 09:51:19;;;;;;;4.57;0.95;;;;;;;;;;5090285;28;20039;-77
2022/04/05 09:53:47;;;;;;;2.40;1.10;;;;;;;;;;5090197;28;20055;-77
2022/04/05 09:56:23;;;;;;;3.13;1.20;;;;;;;;;;5073433;28;20039;-78
2022/04/05 09:58:54;;;;;;;5.15;1.02;;;;;;;;;;5090093;28;20086;-77
2022/04/05 10:01:22;;;;;;;4.35;0.80;;;;;;;;;;5073578;28;20043;-76
2022/04/05 10:03:57;;;;;;;2.83;1.20;;;;;;;;;;5073057;28;20036;-75
2022/04/05 10:06:23;;;;;;;1.55;0.70;;;;;;;;;;5072891;28;20036;-78
2022/04/05 10:08:49;;;;;;;2.08;0.88;;;;;;;;;;5075326;28;20373;-76
2022/04/05 10:11:15;;;;;;;2.47;1.15;;;;;;;;;;5077462;28;20416;-77
2022/04/05 10:13:41;;;;;;;4.00;1.17;;;;;;;;;;5094063;28;20101;-77
2022/04/05 10:16:08;;;;;;;2.95;1.13;;;;;;;;;;5077195;28;20039;-77
2022/04/05 10:18:36;;;;;;;1.08;0.85;;;;;;;;;;5076570;28;20336;-77
2022/04/05 10:21:03;;;;;;;5.88;1.60;;;;;;;;;;5077202;28;20059;-76
2022/04/05 10:23:29;;;;;;;4.47;1.20;;;;;;;;;;5093909;28;20098;-78
2022/04/05 10:25:56;;;;;;;1.95;1.02;;;;;;;;;;5093891;28;20437;-77
2022/04/05 10:28:30;;;;;;;4.50;1.17;;;;;;;;;;5076853;28;20054;-77
2022/04/05 10:31:10;;;;;;;1.98;1.00;;;;;;;;;;5076579;28;20513;-77
2022/04/05 10:33:45;;;;;;;3.15;1.00;;;;;;;;;;5077108;28;20065;-75
2022/04/05 10:36:11;;;;;;;3.35;0.93;;;;;;;;;;5094529;28;20040;-77
2022/04/05 10:38:37;;;;;;;1.20;0.80;;;;;;;;;;5077039;28;20054;-76
2022/04/05 10:41:09;;;;;;;3.10;1.20;;;;;;;;;;5076471;28;20039;-77
2022/04/05 10:43:38;;;;;;;3.53;1.35;;;;;;;;;;5093583;28;20044;-77
2022/04/05 10:46:05;;;;;;;2.38;1.00;;;;;;;;;;5094043;28;20043;-77
2022/04/05 10:48:31;;;;;;;2.15;1.30;;;;;;;;;;5076927;28;20482;-77
2022/04/05 10:51:00;;;;;;;1.98;1.13;;;;;;;;;;5093778;28;20047;-78
2022/04/05 10:53:37;;;;;;;1.88;1.02;;;;;;;;;;5093319;28;20402;-76
2022/04/05 10:56:07;;;;;;;2.58;1.00;;;;;;;;;;5092993;28;20399;-77
2022/04/05 10:58:33;;;;;;;1.17;1.08;;;;;;;;;;5076529;28;20494;-77
2022/04/05 11:01:14;;;;;;;1.90;1.00;;;;;;;;;;5076552;28;20236;-77
2022/04/05 11:03:40;;;;;;;2.25;1.17;;;;;;;;;;5076269;28;20040;-76
2022/04/05 11:06:06;;;;;;;3.33;0.90;;;;;;;;;;5075979;28;20039;-76
2022/04/05 11:08:33;;;;;;;1.70;1.13;;;;;;;;;;5093243;28;20518;-76
2022/04/05 11:11:04;;;;;;;2.58;1.60;;;;;;;;;;5076075;28;20475;-77
2022/04/05 11:13:30;;;;;;;1.98;1.17;;;;;;;;;;5076407;28;20047;-77
2022/04/05 11:15:57;;;;;;;1.83;1.27;;;;;;;;;;5092898;28;20566;-76
2022/04/05 11:18:24;;;;;;;2.42;0.80;;;;;;;;;;5070056;28;20036;-76
2022/04/05 11:20:52;;;;;;;1.70;1.00;;;;;;;;;;5075675;28;20040;-74
2022/04/05 11:23:18;;;;;;;1.15;0.70;;;;;;;;;;5082434;28;20036;-78
2022/04/05 11:25:45;;;;;;;1.73;1.10;;;;;;;;;;5084542;28;20077;-76
2022/04/05 11:28:15;;;;;;;2.28;1.17;;;;;;;;;;5077351;28;20043;-76
2022/04/05 11:30:47;;;;;;;1.20;1.10;;;;;;;;;;5073402;28;20039;-76
2022/04/05 11:33:20;;;;;;;1.52;1.00;;;;;;;;;;5088240;28;20048;-77
2022/04/05 11:35:57;;;;;;;0.88;0.82;;;;;;;;;;5074287;28;20070;-77
2022/04/05 11:38:25;;;;;;;1.00;0.90;;;;;;;;;;5078873;28;20048;-78
2022/04/05 11:40:52;;;;;;;0.98;0.77;;;;;;;;;;5058765;28;20436;-77
2022/04/05 11:43:20;;;;;;;1.23;0.60;;;;;;;;;;5060603;28;20040;-78
2022/04/05 11:45:46;;;;;;;0.70;0.70;;;;;;;;;;5060400;28;20594;-76
2022/04/05 11:48:16;;;;;;;2.42;1.05;;;;;;;;;;5061185;28;20032;-78
2022/04/05 11:50:42;;;;;;;0.88;0.70;;;;;;;;;;5077564;28;20048;-75
2022/04/05 11:53:18;;;;;;;0.93;0.85;;;;;;;;;;5077728;28;20039;-76
2022/04/05 11:56:02;;;;;;;1.30;1.10;;;;;;;;;;5060347;28;20468;-79
2022/04/05 11:58:30;;;;;;;1.20;1.10;;;;;;;;;;5060284;28;20154;-77
2022/04/05 12:00:57;;;;;;;2.35;1.00;;;;;;;;;;5076880;28;20047;-77
2022/04/05 12:03:23;;;;;;;3.25;1.45;;;;;;;;;;5060189;28;20044;-76
2022/04/05 12:05:49;;;;;;;1.20;1.00;;;;;;;;;;5076779;28;20551;-79
2022/04/05 12:08:15;;;;;;;1.58;1.20;;;;;;;;;;5076677;28;20464;-77
2022/04/05 12:10:42;;;;;;;1.45;1.17;;;;;;;;;;5060661;28;20041;-78
2022/04/05 12:13:08;;;;;;;1.50;1.30;;;;;;;;;;5078080;28;20066;-77
2022/04/05 12:15:35;;;;;;;1.52;1.02;;;;;;;;;;5059484;28;20044;-77
2022/04/05 12:18:20;;;;;;;1.90;1.20;;;;;;;;;;5060568;28;20381;-76
2022/04/05 12:21:06;;;;;;;1.33;1.02;;;;;;;;;;5060474;28;20511;-76
2022/04/05 12:23:36;;;;;;;1.23;1.08;;;;;;;;;;5094421;28;20047;-77
2022/04/05 12:26:13;;;;;;;1.30;1.13;;;;;;;;;;5095990;28;20036;-78
2022/04/05 12:28:41;;;;;;;1.80;1.25;;;;;;;;;;5096705;28;20035;-76
2022/04/05 12:31:08;;;;;;;1.77;1.40;;;;;;;;;;5075927;28;20101;-77
2022/04/05 12:33:35;;;;;;;1.70;1.15;;;;;;;;;;5063868;28;20048;-78
2022/04/05 12:36:01;;;;;;;1.70;1.20;;;;;;;;;;5058980;28;20065;-75
2022/04/05 12:38:27;;;;;;;2.40;1.30;;;;;;;;;;5079700;28;20511;-76
2022/04/05 12:40:53;;;;;;;1.23;1.13;;;;;;;;;;5076264;28;20044;-76
2022/04/05 12:43:20;;;;;;;2.08;1.73;;;;;;;;;;5074631;28;20048;-77
2022/04/05 12:45:46;;;;;;;1.58;1.30;;;;;;;;;;5076307;28;20040;-78
2022/04/05 12:48:19;;;;;;;1.45;1.10;;;;;;;;;;5074623;28;20032;-77
2022/04/05 12:50:49;;;;;;;1.80;1.27;;;;;;;;;;5075092;28;20066;-77
2022/04/05 12:53:26;;;;;;;1.58;1.08;;;;;;;;;;5068972;28;20039;-78
2022/04/05 12:55:59;;;;;;;1.52;1.05;;;;;;;;;;5078101;28;20044;-75
2022/04/05 12:58:36;;;;;;;1.85;1.30;;;;;;;;;;5078593;28;20042;-77
2022/04/05 13:01:02;;;;;;;3.00;1.20;;;;;;;;;;5071309;28;20093;-77
2022/04/05 13:03:32;;;;;;;2.08;1.67;;;;;;;;;;5080431;28;20074;-78
2022/04/05 13:08:43;;;;;;;2.20;1.58;;;;;;;;;;5077322;28;20044;-78
2022/04/05 13:11:30;;;;;;;3.05;2.00;;;;;;;;;;5076923;28;20513;-77
2022/04/05 13:14:08;;;;;;;2.50;1.60;;;;;;;;;;5094455;28;20051;-78
2022/04/05 13:16:35;;;;;;;2.83;1.95;;;;;;;;;;5077252;28;20096;-79
2022/04/05 13:19:10;;;;;;;3.00;2.08;;;;;;;;;;5084342;28;20047;-77
2022/04/05 13:21:49;;;;;;;3.85;2.10;;;;;;;;;;5057338;28;20048;-77
2022/04/05 13:24:16;;;;;;;3.20;1.90;;;;;;;;;;5073793;28;20464;-72
2022/04/05 13:26:50;;;;;;;4.18;2.03;;;;;;;;;;5076711;28;20047;-74
2022/04/05 13:29:17;;;;;;;6.10;2.58;;;;;;;;;;5086954;27;20066;-79
2022/04/05 13:31:51;;;;;;;4.80;2.22;;;;;;;;;;5114731;27;20099;-77
2022/04/05 13:34:18;;;;;;;3.97;2.10;;;;;;;;;;5114543;27;20078;-78
2022/04/05 13:36:44;;;;;;;3.92;1.98;;;;;;;;;;5084804;28;20036;-73
2022/04/05 13:39:11;;;;;;;3.85;1.85;;;;;;;;;;5057929;28;20039;-78
2022/04/05 13:41:37;;;;;;;3.47;2.00;;;;;;;;;;5090958;28;20052;-74
2022/04/05 13:44:04;;;;;;;4.28;2.17;;;;;;;;;;5091483;28;20093;-74
2022/04/05 13:46:31;;;;;;;3.55;2.17;;;;;;;;;;5057489;28;20486;-78
2022/04/05 13:48:57;;;;;;;4.95;2.90;;;;;;;;;;5074485;28;20081;-79
2022/04/05 13:51:23;;;;;;;4.28;2.30;;;;;;;;;;5067184;28;20175;-73
2022/04/05 13:53:49;;;;;;;6.65;2.30;;;;;;;;;;5094511;28;20039;-74
2022/04/05 13:56:15;;;;;;;4.88;2.45;;;;;;;;;;5094644;28;20054;-77
2022/04/05 13:58:41;;;;;;;4.75;2.55;;;;;;;;;;5077720;28;20035;-74
2022/04/05 14:01:07;;;;;;;3.88;2.30;;;;;;;;;;5077472;28;20047;-73
2022/04/05 14:03:33;;;;;;;4.05;2.15;;;;;;;;;;5078054;28;20043;-72
2022/04/05 14:05:59;;;;;;;4.25;2.60;;;;;;;;;;5095301;28;20046;-77
2022/04/05 14:08:25;;;;;;;8.80;3.72;;;;;;;;;;5094726;28;20476;-78
2022/04/05 14:10:51;;;;;;;6.00;2.72;;;;;;;;;;5080231;28;20079;-72
2022/04/05 14:13:17;;;;;;;5.53;2.72;;;;;;;;;;5073945;28;20058;-72
2022/04/05 14:15:43;;;;;;;5.03;2.70;;;;;;;;;;5074297;28;20047;-78
2022/04/05 14:18:09;;;;;;;7.45;3.00;;;;;;;;;;5058031;28;20036;-77
2022/04/05 14:20:35;;;;;;;4.95;2.63;;;;;;;;;;5057505;28;20138;-76
2022/04/05 14:23:01;;;;;;;8.18;3.20;;;;;;;;;;5084442;28;20047;-76
2022/04/05 14:25:27;;;;;;;6.13;3.22;;;;;;;;;;5093228;28;20484;-72
2022/04/05 14:27:53;;;;;;;6.95;3.45;;;;;;;;;;5084513;28;20043;-73
2022/04/05 14:30:19;;;;;;;6.65;3.00;;;;;;;;;;5090983;28;20081;-75
2022/04/05 14:32:45;;;;;;;6.90;3.15;;;;;;;;;;5076512;28;20502;-71
2022/04/05 14:35:11;;;;;;;9.88;3.25;;;;;;;;;;5093255;28;20051;-72
2022/04/05 14:37:37;;;;;;;8.70;3.75;;;;;;;;;;5093188;28;20054;-71
2022/04/05 14:40:03;;;;;;;6.97;3.28;;;;;;;;;;5093268;28;20128;-77
2022/04/05 14:42:29;;;;;;;9.48;3.45;;;;;;;;;;5092835;28;20055;-73
2022/04/05 14:44:55;;;;;;;10.73;4.28;;;;;;;;;;5093161;28;20479;-72
2022/04/05 14:47:21;;;;;;;8.43;4.03;;;;;;;;;;5076595;28;20044;-73